.
WxDataArchive / Data Records for 2009-07-03
2009-07-02 July 2009 2009-07-04

Data Records for Friday, 03 July 2009

Time	Temp	Chill	HIndex	Humid	Dewpt	 Wind 	HiWind	WindDir	Rain 	Barom 
-----	----	-----	------	-----	-----	------	------	-------	-----	----- 
00:00	62.7	62.7	62.7	78	55.7	0	1	315	0.00	30.018 
00:05	62.4	62.4	62.4	78	55.4	0	1	315	0.00	30.018 
00:10	62.3	62.3	62.3	79	55.7	0	1	315	0.00	30.018 
00:15	62.1	62.1	62.1	79	55.5	0	0	---	0.00	30.015 
00:20	62.0	62.0	62.0	79	55.4	0	0	---	0.00	30.015 
00:25	61.8	61.8	61.8	80	55.6	0	0	---	0.00	30.015 
00:30	61.5	61.5	61.5	80	55.3	0	0	---	0.00	30.015 
00:35	61.3	61.3	61.3	81	55.4	0	0	---	0.00	30.015 
00:40	61.2	61.2	61.2	81	55.3	0	0	---	0.00	30.015 
00:45	61.0	61.0	61.0	82	55.5	0	0	---	0.00	30.016 
00:50	60.9	60.9	60.9	82	55.4	0	0	---	0.00	30.016 
00:55	60.7	60.7	60.7	83	55.5	0	1	315	0.00	30.016 
01:00	60.7	60.7	60.7	84	55.8	0	0	---	0.00	30.017 
01:05	60.9	60.9	60.9	84	56.0	0	1	315	0.00	30.017 
01:10	60.9	60.9	60.9	84	56.0	0	1	315	0.00	30.017 
01:15	60.9	60.9	60.9	84	56.0	0	1	315	0.00	30.016 
01:20	60.9	60.9	60.9	84	56.0	0	1	315	0.00	30.016 
01:25	60.7	60.7	60.7	84	55.8	0	0	---	0.00	30.016 
01:30	60.7	60.7	60.7	84	55.8	0	0	---	0.00	30.018 
01:35	60.5	60.5	60.5	84	55.6	0	0	---	0.00	30.018 
01:40	60.4	60.4	60.4	84	55.5	0	0	---	0.00	30.018 
01:45	60.2	60.2	60.2	84	55.3	0	0	---	0.00	30.025 
01:50	60.1	60.1	60.1	84	55.2	0	0	---	0.00	30.025 
01:55	59.9	59.9	59.9	85	55.4	0	0	---	0.00	30.025 
02:00	59.8	59.8	59.8	85	55.3	0	0	---	0.00	30.027 
02:05	59.5	59.5	59.5	86	55.3	0	0	---	0.00	30.027 
02:10	59.3	59.3	59.3	86	55.1	0	0	---	0.00	30.027 
02:15	59.2	59.2	59.2	86	55.0	0	0	---	0.00	30.030 
02:20	58.9	58.9	58.9	86	54.7	0	0	---	0.00	30.030 
02:25	58.7	58.7	58.7	87	54.8	0	0	---	0.00	30.030 
02:30	58.6	58.6	58.6	87	54.7	0	0	---	0.00	30.030 
02:35	58.4	58.4	58.4	88	54.9	0	0	---	0.00	30.030 
02:40	58.3	58.3	58.3	88	54.8	0	0	---	0.00	30.030 
02:45	58.4	58.4	58.4	89	55.2	0	0	---	0.00	30.032 
02:50	58.4	58.4	58.4	89	55.2	0	0	---	0.00	30.032 
02:55	58.6	58.6	58.6	90	55.7	0	0	---	0.00	30.032 
03:00	58.9	58.9	58.9	90	56.0	0	0	---	0.00	30.028 
03:05	59.0	59.0	59.0	90	56.1	0	0	---	0.00	30.028 
03:10	59.2	59.2	59.2	90	56.3	0	0	---	0.00	30.028 
03:15	59.5	59.5	59.5	90	56.6	0	0	---	0.00	30.028 
03:20	59.8	59.8	59.8	89	56.5	0	1	315	0.00	30.028 
03:25	59.9	59.9	59.9	88	56.3	0	1	315	0.00	30.028 
03:30	60.1	60.1	60.1	88	56.5	0	1	315	0.00	30.029 
03:35	60.2	60.2	60.2	88	56.6	0	0	---	0.00	30.029 
03:40	60.4	60.4	60.4	87	56.5	0	1	315	0.00	30.029 
03:45	60.5	60.5	60.5	87	56.6	0	1	315	0.00	30.032 
03:50	60.5	60.5	60.5	87	56.6	0	1	315	0.00	30.032 
03:55	60.5	60.5	60.5	87	56.6	0	1	315	0.00	30.032 
04:00	60.7	60.7	60.7	87	56.8	0	1	315	0.00	30.032 
04:05	60.7	60.7	60.7	86	56.5	0	1	315	0.00	30.032 
04:10	60.7	60.7	60.7	86	56.5	0	1	315	0.00	30.032 
04:15	60.9	60.9	60.9	86	56.7	0	1	315	0.00	30.033 
04:20	60.9	60.9	60.9	86	56.7	0	1	315	0.00	30.033 
04:25	60.9	60.9	60.9	86	56.7	0	1	315	0.00	30.033 
04:30	61.0	61.0	61.0	86	56.8	0	2	315	0.00	30.039 
04:35	61.0	61.0	61.0	86	56.8	0	1	315	0.00	30.039 
04:40	61.2	61.2	61.2	85	56.6	0	1	315	0.00	30.039 
04:45	61.2	61.2	61.2	85	56.6	0	1	315	0.00	30.041 
04:50	61.2	61.2	61.2	85	56.6	0	0	---	0.00	30.041 
04:55	61.2	61.2	61.2	85	56.6	0	1	315	0.00	30.041 
05:00	61.3	61.3	61.3	85	56.7	0	1	315	0.00	30.041 
05:05	61.3	61.3	61.3	85	56.7	0	1	315	0.00	30.041 
05:10	61.5	61.5	61.5	85	56.9	0	3	315	0.00	30.041 
05:15	61.5	61.5	61.5	84	56.6	0	1	315	0.00	30.043 
05:20	61.5	61.5	61.5	84	56.6	0	1	315	0.00	30.043 
05:25	61.6	61.6	61.6	84	56.7	0	1	315	0.00	30.043 
05:30	61.6	61.6	61.6	84	56.7	0	1	315	0.00	30.046 
05:35	61.6	61.6	61.6	84	56.7	0	2	315	0.00	30.046 
05:40	61.8	61.8	61.8	84	56.9	0	1	315	0.00	30.046 
05:45	61.8	61.8	61.8	84	56.9	0	3	315	0.00	30.049 
05:50	61.8	61.8	61.8	84	56.9	0	1	315	0.00	30.049 
05:55	61.8	61.8	61.8	84	56.9	0	1	315	0.00	30.049 
06:00	62.0	62.0	62.0	84	57.1	0	1	315	0.00	30.054 
06:05	62.0	62.0	62.0	84	57.1	0	1	315	0.00	30.054 
06:10	62.0	62.0	62.0	84	57.1	0	2	315	0.00	30.054 
06:15	62.0	62.0	62.0	84	57.1	0	2	315	0.00	30.058 
06:20	62.0	62.0	62.0	84	57.1	0	2	315	0.00	30.058 
06:25	62.0	62.0	62.0	84	57.1	0	2	315	0.00	30.058 
06:30	62.0	62.0	62.0	84	57.1	0	1	315	0.00	30.059 
06:35	62.0	62.0	62.0	84	57.1	0	1	315	0.00	30.059 
06:40	62.1	62.1	62.1	84	57.2	0	1	315	0.00	30.059 
06:45	62.1	62.1	62.1	84	57.2	0	1	315	0.00	30.059 
06:50	62.1	62.1	62.1	84	57.2	0	1	315	0.00	30.059 
06:55	62.1	62.1	62.1	84	57.2	0	1	315	0.00	30.059 
07:00	62.1	62.1	62.1	84	57.2	0	1	315	0.00	30.060 
07:05	62.3	62.3	62.3	84	57.4	0	1	315	0.00	30.060 
07:10	62.3	62.3	62.3	84	57.4	0	0	---	0.00	30.060 
07:15	62.3	62.3	62.3	84	57.4	0	2	315	0.00	30.062 
07:20	62.3	62.3	62.3	84	57.4	0	1	315	0.00	30.062 
07:25	62.4	62.4	62.4	84	57.5	0	1	315	0.00	30.062 
07:30	62.4	62.4	62.4	84	57.5	0	1	315	0.00	30.070 
07:35	62.4	62.4	62.4	84	57.5	0	1	315	0.00	30.070 
07:40	62.4	62.4	62.4	84	57.5	0	1	315	0.00	30.070 
07:45	62.6	62.6	62.6	84	57.7	0	1	315	0.00	30.067 
07:50	62.6	62.6	62.6	84	57.7	0	1	315	0.00	30.067 
07:55	62.6	62.6	62.6	84	57.7	0	1	315	0.00	30.067 
08:00	62.7	62.7	62.7	84	57.8	0	1	315	0.00	30.069 
08:05	62.7	62.7	62.7	84	57.8	0	1	315	0.00	30.069 
08:10	62.9	62.9	62.9	84	58.0	0	1	0	0.00	30.069 
08:15	63.1	63.1	63.1	84	58.2	0	1	0	0.00	30.065 
08:20	63.1	63.1	63.1	83	57.8	0	1	0	0.00	30.065 
08:25	63.2	63.2	63.2	83	57.9	0	1	0	0.00	30.065 
08:30	63.4	63.4	63.4	83	58.1	0	1	0	0.00	30.070 
08:35	63.4	63.4	63.4	83	58.1	0	1	0	0.00	30.070 
08:40	63.5	63.5	63.5	83	58.2	0	1	0	0.00	30.070 
08:45	63.7	63.7	63.7	83	58.4	0	1	0	0.00	30.063 
08:50	63.9	63.9	63.9	83	58.6	0	2	0	0.00	30.063 
08:55	64.2	64.2	64.2	82	58.6	0	1	202	0.00	30.063 
09:00	64.5	64.5	64.5	81	58.5	0	3	202	0.00	30.059 
09:05	64.8	64.8	64.8	81	58.8	0	1	202	0.00	30.059 
09:10	65.3	65.3	65.3	80	59.0	0	1	202	0.00	30.059 
09:15	65.6	65.6	65.6	78	58.5	0	2	315	0.00	30.071 
09:20	66.0	66.0	66.0	78	58.9	0	2	270	0.00	30.071 
09:25	66.1	66.1	66.1	77	58.7	0	2	270	0.00	30.071 
09:30	66.3	66.3	66.3	76	58.5	0	2	270	0.00	30.074 
09:35	66.6	66.6	66.6	76	58.8	0	2	270	0.00	30.074 
09:40	66.8	66.8	66.8	76	59.0	0	1	270	0.00	30.074 
09:45	66.9	66.9	66.9	76	59.1	1	3	270	0.00	30.075 
09:50	67.1	67.1	67.1	76	59.3	1	3	292	0.00	30.075 
09:55	67.3	67.3	67.3	76	59.5	1	3	292	0.00	30.075 
10:00	67.6	67.6	67.6	75	59.4	0	2	292	0.00	30.081 
10:05	67.6	67.6	67.6	74	59.0	1	3	292	0.00	30.081 
10:10	67.8	67.8	67.8	74	59.2	2	6	292	0.00	30.081 
10:15	67.9	67.9	67.9	73	58.9	1	2	270	0.00	30.085 
10:20	68.3	68.3	68.3	73	59.3	0	2	270	0.00	30.085 
10:25	68.6	68.6	68.6	73	59.6	0	1	270	0.00	30.085 
10:30	69.6	69.6	69.6	73	60.6	1	3	270	0.00	30.072 
10:35	70.1	70.1	70.1	70	59.8	1	2	270	0.00	30.072 
10:40	70.6	70.6	70.6	69	59.9	1	2	270	0.00	30.072 
10:45	71.5	71.5	71.5	69	60.8	0	2	270	0.00	30.071 
10:50	72.0	72.0	72.0	65	59.6	1	4	270	0.00	30.071 
10:55	71.8	71.8	71.8	63	58.5	2	4	292	0.00	30.071 
11:00	71.6	71.6	71.6	65	59.2	1	2	292	0.00	30.070 
11:05	71.5	71.5	71.5	65	59.1	1	3	292	0.00	30.070 
11:10	71.6	71.6	71.6	64	58.8	1	3	315	0.00	30.070 
11:15	72.0	72.0	72.0	66	60.0	0	2	315	0.00	30.071 
11:20	71.8	71.8	71.8	63	58.5	1	4	292	0.00	30.071 
11:25	71.8	71.8	71.8	65	59.4	0	1	315	0.00	30.071 
11:30	72.0	72.0	72.0	63	58.7	1	2	315	0.00	30.069 
11:35	72.0	72.0	72.0	63	58.7	1	4	292	0.00	30.069 
11:40	71.8	71.8	71.8	62	58.1	0	1	292	0.00	30.069 
11:45	71.8	71.8	71.8	61	57.6	0	2	292	0.00	30.069 
11:50	72.0	72.0	72.0	62	58.3	0	1	292	0.00	30.069 
11:55	72.3	72.3	72.3	58	56.7	0	2	292	0.00	30.069 
12:00	72.5	72.5	72.5	57	56.4	1	3	292	0.00	30.061 
12:05	72.8	72.8	72.8	57	56.7	1	3	292	0.00	30.061 
12:10	73.2	73.2	73.2	56	56.5	1	2	315	0.00	30.061 
12:15	73.5	73.5	73.5	58	57.8	1	3	315	0.00	30.068 
12:20	73.9	73.9	73.9	54	56.2	0	2	315	0.00	30.068 
12:25	74.6	74.6	74.6	55	57.3	1	3	292	0.00	30.068 
12:30	75.8	75.8	78.0	55	58.5	1	4	292	0.00	30.067 
12:35	76.3	76.3	78.3	54	58.4	2	5	270	0.00	30.067 
12:40	76.3	76.3	78.2	51	56.8	3	5	270	0.00	30.067 
12:45	75.3	75.3	77.7	51	55.9	2	6	270	0.00	30.068 
12:50	74.6	74.6	74.6	52	55.8	2	3	270	0.00	30.068 
12:55	74.2	74.2	74.2	52	55.4	2	4	315	0.00	30.068 
13:00	74.2	74.2	74.2	54	56.5	1	2	315	0.00	30.071 
13:05	74.2	74.2	74.2	53	56.0	1	2	315	0.00	30.071 
13:10	74.0	74.0	74.0	52	55.2	2	3	315	0.00	30.071 
13:15	74.0	74.0	74.0	52	55.2	1	4	315	0.00	30.069 
13:20	74.0	74.0	74.0	53	55.8	1	3	270	0.00	30.069 
13:25	73.9	73.9	73.9	53	55.7	2	4	270	0.00	30.069 
13:30	74.0	74.0	74.0	53	55.8	1	3	292	0.00	30.067 
13:35	74.4	74.4	74.4	53	56.1	2	3	248	0.00	30.067 
13:40	74.6	74.6	74.6	53	56.3	2	4	292	0.00	30.067 
13:45	74.6	74.6	74.6	54	56.8	2	4	292	0.00	30.065 
13:50	74.7	74.7	74.7	53	56.4	1	4	292	0.00	30.065 
13:55	75.1	75.1	77.6	54	57.3	1	3	292	0.00	30.065 
14:00	75.3	75.3	77.7	51	55.9	1	4	292	0.00	30.059 
14:05	75.3	75.3	77.7	51	55.9	1	3	270	0.00	30.059 
14:10	75.3	75.3	77.7	51	55.9	2	5	292	0.00	30.059 
14:15	75.3	75.3	77.7	53	57.0	1	4	292	0.00	30.055 
14:20	76.0	76.0	78.1	52	57.1	3	5	270	0.00	30.055 
14:25	76.3	76.3	78.2	49	55.7	2	4	270	0.00	30.055 
14:30	76.0	76.0	78.1	51	56.5	2	4	248	0.00	30.052 
14:35	76.3	76.3	78.2	52	57.4	1	4	248	0.00	30.052 
14:40	76.0	76.0	78.1	52	57.1	2	5	270	0.00	30.052 
14:45	75.8	75.8	78.0	53	57.4	2	4	270	0.00	30.053 
14:50	76.0	76.0	78.1	53	57.6	1	4	270	0.00	30.053 
14:55	76.0	76.0	78.1	52	57.1	1	3	270	0.00	30.053 
15:00	75.8	75.8	78.0	51	56.4	2	5	270	0.00	30.052 
15:05	75.8	75.8	78.0	52	56.9	1	3	270	0.00	30.052 
15:10	76.3	76.3	78.2	51	56.8	1	3	292	0.00	30.052 
15:15	76.5	76.5	78.3	50	56.5	2	5	270	0.00	30.046 
15:20	76.5	76.5	78.3	49	55.9	2	5	270	0.00	30.046 
15:25	76.1	76.1	78.1	50	56.1	2	5	315	0.00	30.046 
15:30	76.3	76.3	78.2	51	56.8	1	4	292	0.00	30.050 
15:35	76.0	76.0	78.1	51	56.5	2	5	270	0.00	30.050 
15:40	76.0	76.0	78.1	52	57.1	2	4	270	0.00	30.050 
15:45	76.3	76.3	78.2	51	56.8	2	3	270	0.00	30.048 
15:50	76.3	76.3	78.2	51	56.8	2	6	270	0.00	30.048 
15:55	76.0	76.0	78.1	51	56.5	2	4	270	0.00	30.048 
16:00	75.8	75.8	78.0	52	56.9	1	3	315	0.00	30.050 
16:05	75.6	75.6	77.9	52	56.7	3	6	292	0.00	30.050 
16:10	75.8	75.8	78.0	51	56.4	2	5	270	0.00	30.050 
16:15	75.6	75.6	77.9	53	57.2	2	4	292	0.00	30.051 
16:20	75.4	75.4	77.8	54	57.6	2	3	270	0.00	30.051 
16:25	75.3	75.3	77.7	52	56.4	2	4	270	0.00	30.051 
16:30	75.8	75.8	78.0	54	57.9	2	4	248	0.00	30.052 
16:35	76.3	76.3	78.2	53	57.9	1	5	270	0.00	30.052 
16:40	76.3	76.3	78.2	51	56.8	2	4	315	0.00	30.052 
16:45	76.0	76.0	78.1	53	57.6	2	5	270	0.00	30.048 
16:50	76.1	76.1	78.1	51	56.6	2	5	270	0.00	30.048 
16:55	76.7	76.7	78.4	51	57.2	2	5	292	0.00	30.048 
17:00	76.8	76.8	78.5	52	57.8	1	4	292	0.00	30.048 
17:05	77.4	77.4	78.8	50	57.3	2	5	315	0.00	30.048 
17:10	77.2	77.2	78.7	51	57.6	1	3	315	0.00	30.048 
17:15	76.7	76.7	78.4	51	57.2	3	5	292	0.00	30.047 
17:20	76.5	76.5	78.3	51	57.0	3	7	270	0.00	30.047 
17:25	76.1	76.1	78.1	52	57.2	2	4	270	0.00	30.047 
17:30	75.6	75.6	77.9	54	57.8	2	6	315	0.00	30.050 
17:35	75.8	75.8	78.0	54	57.9	1	4	315	0.00	30.050 
17:40	76.1	76.1	78.1	53	57.7	3	5	270	0.00	30.050 
17:45	76.5	76.5	78.4	53	58.1	2	5	315	0.00	30.051 
17:50	76.7	76.7	78.4	51	57.2	2	4	292	0.00	30.051 
17:55	76.3	76.3	78.2	53	57.9	2	6	315	0.00	30.051 
18:00	75.6	75.6	77.9	53	57.2	2	5	315	0.00	30.051 
18:05	75.4	75.4	77.7	56	58.6	3	6	270	0.00	30.051 
18:10	75.4	75.4	77.8	54	57.6	2	4	270	0.00	30.051 
18:15	75.6	75.6	77.9	53	57.2	2	6	270	0.00	30.049 
18:20	75.3	75.3	77.7	52	56.4	2	5	292	0.00	30.049 
18:25	75.3	75.3	77.7	52	56.4	1	4	315	0.00	30.049 
18:30	75.4	75.4	77.8	51	56.0	2	4	315	0.00	30.049 
18:35	75.4	75.4	77.8	50	55.4	2	4	315	0.00	30.049 
18:40	75.6	75.6	77.9	50	55.6	2	5	270	0.00	30.049 
18:45	75.4	75.4	77.8	50	55.4	2	5	270	0.00	30.050 
18:50	75.6	75.6	77.9	51	56.2	1	5	270	0.00	30.050 
18:55	75.8	75.8	78.0	51	56.4	1	2	270	0.00	30.050 
19:00	76.0	76.0	78.1	51	56.5	1	4	292	0.00	30.044 
19:05	75.8	75.8	78.0	52	56.9	2	6	270	0.00	30.044 
19:10	75.4	75.4	77.8	51	56.0	2	7	270	0.00	30.044 
19:15	75.1	75.1	77.6	52	56.3	2	5	292	0.00	30.049 
19:20	74.9	74.9	74.9	51	55.5	2	4	292	0.00	30.049 
19:25	74.9	74.9	74.9	52	56.1	1	5	292	0.00	30.049 
19:30	74.7	74.7	74.7	52	55.9	2	5	292	0.00	30.052 
19:35	74.6	74.6	74.6	52	55.8	2	6	292	0.00	30.052 
19:40	74.6	74.6	74.6	53	56.3	1	4	270	0.00	30.052 
19:45	74.4	74.4	74.4	52	55.6	1	5	270	0.00	30.052 
19:50	74.2	74.2	74.2	52	55.4	1	6	315	0.00	30.052 
19:55	74.0	74.0	74.0	51	54.7	2	5	315	0.00	30.052 
20:00	73.7	73.7	73.7	52	55.0	2	5	315	0.00	30.056 
20:05	73.5	73.5	73.5	53	55.3	1	5	270	0.00	30.056 
20:10	73.3	73.3	73.3	53	55.1	1	4	270	0.00	30.056 
20:15	73.2	73.2	73.2	54	55.5	0	2	270	0.00	30.056 
20:20	72.8	72.8	72.8	55	55.7	0	1	270	0.00	30.056 
20:25	72.5	72.5	72.5	56	55.9	0	1	270	0.00	30.056 
20:30	72.3	72.3	72.3	55	55.2	0	2	270	0.00	30.060 
20:35	72.1	72.1	72.1	56	55.5	1	4	292	0.00	30.060 
20:40	72.0	72.0	72.0	56	55.4	1	2	292	0.00	30.060 
20:45	71.8	71.8	71.8	56	55.2	0	2	292	0.00	30.060 
20:50	71.6	71.6	71.6	58	56.0	0	3	315	0.00	30.060 
20:55	71.3	71.3	71.3	58	55.7	0	1	315	0.00	30.060 
21:00	70.9	70.9	70.9	58	55.4	0	1	315	0.00	30.061 
21:05	70.8	70.8	70.8	59	55.7	0	1	315	0.00	30.061 
21:10	70.6	70.6	70.6	60	56.0	0	1	315	0.00	30.061 
21:15	70.3	70.3	70.3	60	55.7	0	0	---	0.00	30.059 
21:20	69.9	69.9	69.9	61	55.8	0	0	---	0.00	30.059 
21:25	69.6	69.6	69.6	62	56.0	0	0	---	0.00	30.059 
21:30	69.3	69.3	69.3	63	56.2	0	0	---	0.00	30.060 
21:35	69.1	69.1	69.1	63	56.0	0	1	315	0.00	30.060 
21:40	68.9	68.9	68.9	64	56.2	0	1	315	0.00	30.060 
21:45	68.6	68.6	68.6	64	55.9	0	0	---	0.00	30.062 
21:50	68.4	68.4	68.4	65	56.2	0	0	---	0.00	30.062 
21:55	68.3	68.3	68.3	65	56.1	0	1	315	0.00	30.062 
22:00	68.3	68.3	68.3	66	56.5	0	2	315	0.00	30.066 
22:05	68.1	68.1	68.1	66	56.3	0	2	315	0.00	30.066 
22:10	68.1	68.1	68.1	66	56.3	0	1	315	0.00	30.066 
22:15	67.9	67.9	67.9	66	56.1	0	2	315	0.00	30.067 
22:20	67.8	67.8	67.8	67	56.4	0	1	315	0.00	30.067 
22:25	67.6	67.6	67.6	67	56.2	0	1	315	0.00	30.067 
22:30	67.3	67.3	67.3	67	56.0	0	1	315	0.00	30.072 
22:35	67.1	67.1	67.1	68	56.2	0	1	315	0.00	30.072 
22:40	66.9	66.9	66.9	68	56.0	0	1	315	0.00	30.072 
22:45	66.6	66.6	66.6	68	55.7	0	1	315	0.00	30.073 
22:50	66.4	66.4	66.4	69	55.9	0	1	315	0.00	30.073 
22:55	66.1	66.1	66.1	69	55.6	0	1	315	0.00	30.073 
23:00	65.8	65.8	65.8	69	55.3	0	0	---	0.00	30.071 
23:05	65.5	65.5	65.5	70	55.4	0	1	315	0.00	30.071 
23:10	65.3	65.3	65.3	70	55.3	0	0	---	0.00	30.071 
23:15	65.0	65.0	65.0	71	55.4	0	0	---	0.00	30.069 
23:20	64.5	64.5	64.5	72	55.3	0	0	---	0.00	30.069 
23:25	64.3	64.3	64.3	72	55.1	0	0	---	0.00	30.069 
23:30	64.0	64.0	64.0	73	55.2	0	0	---	0.00	30.069 
23:35	63.5	63.5	63.5	73	54.7	0	0	---	0.00	30.069 
23:40	63.2	63.2	63.2	74	54.8	0	0	---	0.00	30.069 
23:45	62.9	62.9	62.9	75	54.8	0	0	---	0.00	30.069 
23:50	62.4	62.4	62.4	75	54.4	0	0	---	0.00	30.069 
23:55	62.1	62.1	62.1	76	54.4	0	0	---	0.00	30.069 

CoCoRaHS
IN-AL-39
A2 Web Hosting
Creative Commons License
GoDaddy
search engine by freefind advanced

loaded 2018-11-14 04:21:09 • last modified 2010-11-18 10:43:29
Privacy PolicyDisclaimer
• wx.awcolley.com is powered by PmWiki v.2002016 •
• all content (unless otherwise noted) © 2018 A W Colley